Time;durP1;ratioP1;P1;durP2;ratioP2;P2;SDS_P1;SDS_P2;PMS_P1;PMS_P2;Temp;Humidity;BMP_temperature;BMP_pressure;BME280_temperature;BME280_humidity;BME280_pressure;Samples;Min_cycle;Max_cycle;Signal;HPM_P1;HPM_P2
2023/03/11 00:00:19;;;;;;;6.82;2.78;;;;;;;2.62;84.68;98724.97;5138020;27;20030;-80
2023/03/11 00:02:46;;;;;;;3.47;2.33;;;;;;;2.49;85.01;98736.81;5139172;27;20026;-80
2023/03/11 00:05:16;;;;;;;4.40;1.80;;;;;;;2.72;85.28;98737.81;5136819;27;20043;-79
2023/03/11 00:07:41;;;;;;;5.05;2.15;;;;;;;3.06;84.97;98737.94;5138166;27;20027;-80
2023/03/11 00:10:08;;;;;;;4.25;1.80;;;;;;;3.16;83.81;98745.41;5138822;27;20054;-79
2023/03/11 00:12:33;;;;;;;3.42;1.50;;;;;;;3.31;83.18;98752.97;5136698;27;20110;-80
2023/03/11 00:14:58;;;;;;;3.70;1.80;;;;;;;3.32;82.86;98759.97;5138311;27;20122;-81
2023/03/11 00:17:23;;;;;;;3.50;1.40;;;;;;;3.24;82.69;98763.88;5137029;27;20255;-80
2023/03/11 00:19:49;;;;;;;5.63;2.50;;;;;;;3.15;82.36;98770.72;5137559;27;20324;-81
2023/03/11 00:22:14;;;;;;;3.95;1.48;;;;;;;3.10;82.61;98776.81;5137811;27;20312;-81
2023/03/11 00:24:39;;;;;;;3.47;2.28;;;;;;;3.01;82.86;98784.44;5138073;27;20119;-81
2023/03/11 00:27:05;;;;;;;4.30;2.57;;;;;;;3.25;83.28;98786.25;5137898;27;20023;-80
2023/03/11 00:29:30;;;;;;;3.95;2.20;;;;;;;3.33;83.29;98788.56;5136565;27;20272;-81
2023/03/11 00:31:56;;;;;;;3.38;1.33;;;;;;;3.55;83.18;98795.97;5138598;27;20037;-81
2023/03/11 00:34:21;;;;;;;3.43;1.53;;;;;;;3.61;81.43;98797.69;5136528;27;20043;-81
2023/03/11 00:36:46;;;;;;;6.93;1.80;;;;;;;3.51;81.57;98810.97;5139639;27;20719;-81
2023/03/11 00:39:11;;;;;;;4.65;1.88;;;;;;;3.62;80.78;98806.59;5139447;27;20274;-81
2023/03/11 00:41:37;;;;;;;3.30;1.70;;;;;;;3.13;81.27;98826.72;5141303;27;20041;-81
2023/03/11 00:44:02;;;;;;;4.72;2.50;;;;;;;3.37;81.94;98813.97;5139918;27;20297;-79
2023/03/11 00:46:29;;;;;;;3.70;1.88;;;;;;;3.17;81.10;98821.66;5140858;27;20034;-80
2023/03/11 00:48:55;;;;;;;3.78;2.00;;;;;;;3.47;81.07;98820.63;5140186;27;20095;-80
2023/03/11 00:51:20;;;;;;;4.15;1.95;;;;;;;3.11;80.40;98823.44;5140342;27;20536;-80
2023/03/11 00:53:45;;;;;;;2.83;1.60;;;;;;;3.33;81.65;98825.47;5139619;27;20555;-80
2023/03/11 00:56:13;;;;;;;5.30;2.70;;;;;;;3.46;81.14;98814.41;5139349;27;20030;-80
2023/03/11 00:58:39;;;;;;;5.63;3.00;;;;;;;3.50;80.04;98820.13;5140643;27;20544;-80
2023/03/11 01:01:09;;;;;;;6.90;2.80;;;;;;;3.62;81.02;98823.56;5140808;27;20490;-80
2023/03/11 01:03:34;;;;;;;3.47;1.63;;;;;;;3.47;80.61;98829.53;5140329;27;20034;-80
2023/03/11 01:06:00;;;;;;;6.03;3.17;;;;;;;3.52;80.84;98830.69;5138256;27;20515;-80
2023/03/11 01:08:25;;;;;;;3.58;2.17;;;;;;;3.68;80.60;98845.25;5139366;27;20122;-80
2023/03/11 01:10:52;;;;;;;3.83;1.85;;;;;;;3.69;79.72;98846.88;5140865;27;20054;-80
2023/03/11 01:13:17;;;;;;;5.55;2.60;;;;;;;3.68;79.79;98859.53;5139809;27;20031;-80
2023/03/11 01:15:42;;;;;;;7.63;2.22;;;;;;;3.66;79.08;98856.25;5140169;27;20218;-80
2023/03/11 01:18:08;;;;;;;4.67;2.00;;;;;;;3.64;79.74;98862.97;5140170;27;20047;-80
2023/03/11 01:20:34;;;;;;;6.38;3.33;;;;;;;3.63;79.40;98859.44;5139926;27;20370;-81
2023/03/11 01:22:59;;;;;;;4.57;1.92;;;;;;;3.65;79.37;98862.72;5140128;27;20507;-80
2023/03/11 01:25:25;;;;;;;4.00;1.67;;;;;;;3.64;79.55;98868.38;5139553;27;20447;-81
2023/03/11 01:27:50;;;;;;;4.32;2.10;;;;;;;3.53;79.85;98868.16;5139552;27;20027;-79
2023/03/11 01:30:20;;;;;;;5.63;2.55;;;;;;;3.66;80.14;98872.44;5139993;27;20069;-81
2023/03/11 01:32:45;;;;;;;6.00;1.80;;;;;;;3.71;79.85;98866.31;5138960;27;20474;-81
2023/03/11 01:35:13;;;;;;;5.82;1.50;;;;;;;3.64;79.58;98869.16;5139520;27;20042;-81
2023/03/11 01:37:38;;;;;;;2.88;1.85;;;;;;;3.78;79.13;98871.59;5139781;27;20056;-81
2023/03/11 01:40:05;;;;;;;5.03;2.05;;;;;;;3.50;78.14;98876.72;5139753;27;20043;-80
2023/03/11 01:42:30;;;;;;;5.75;2.60;;;;;;;3.60;79.48;98873.44;5138846;27;20023;-81
2023/03/11 01:44:55;;;;;;;6.13;1.50;;;;;;;3.50;80.30;98879.41;5139787;27;20041;-80
2023/03/11 01:47:31;;;;;;;4.68;1.80;;;;;;;3.60;78.94;98885.00;5138918;27;20480;-80
2023/03/11 01:49:56;;;;;;;7.13;2.47;;;;;;;3.43;79.12;98878.75;5139073;27;20043;-81
2023/03/11 01:52:22;;;;;;;2.87;1.27;;;;;;;3.55;79.76;98879.53;5139414;27;20035;-81
2023/03/11 01:54:47;;;;;;;8.18;2.05;;;;;;;3.59;78.71;98882.56;5139737;27;20271;-81
2023/03/11 01:57:13;;;;;;;4.55;2.15;;;;;;;3.52;79.98;98887.28;5140193;27;20070;-81
2023/03/11 01:59:46;;;;;;;4.28;1.90;;;;;;;3.35;79.43;98883.47;5138352;27;20053;-81
2023/03/11 02:02:27;;;;;;;12.73;2.75;;;;;;;3.49;79.46;98885.88;5138830;27;20091;-81
2023/03/11 02:04:53;;;;;;;4.38;1.65;;;;;;;3.49;79.17;98885.88;5138836;27;20082;-81
2023/03/11 02:07:19;;;;;;;8.50;2.95;;;;;;;3.65;79.76;98892.38;5139205;27;20058;-80
2023/03/11 02:09:44;;;;;;;6.10;2.40;;;;;;;3.61;79.20;98892.06;5138729;27;20126;-80
2023/03/11 02:12:13;;;;;;;7.57;2.75;;;;;;;3.70;79.51;98894.38;5140008;27;20456;-81
2023/03/11 02:14:42;;;;;;;3.70;1.65;;;;;;;3.54;79.35;98891.34;5139030;27;20067;-81
2023/03/11 02:17:08;;;;;;;4.10;1.67;;;;;;;3.56;79.56;98883.84;5142317;27;20468;-80
2023/03/11 02:19:58;;;;;;;4.97;2.40;;;;;;;3.03;80.11;98890.06;5141737;27;20075;-81
2023/03/11 02:22:23;;;;;;;9.82;2.38;;;;;;;3.25;80.83;98891.34;5142572;27;20031;-81
2023/03/11 02:25:02;;;;;;;3.30;1.50;;;;;;;3.09;80.27;98888.28;5143053;27;20530;-80
2023/03/11 02:27:31;;;;;;;5.05;2.15;;;;;;;3.25;81.24;98894.81;5142431;27;20561;-80
2023/03/11 02:29:58;;;;;;;7.20;1.90;;;;;;;3.44;80.00;98902.75;5142626;27;20314;-81
2023/03/11 02:32:24;;;;;;;3.03;1.50;;;;;;;3.31;80.00;98893.06;5140598;27;20035;-81
2023/03/11 02:34:49;;;;;;;3.55;1.58;;;;;;;3.40;80.33;98884.63;5142381;27;20055;-80
2023/03/11 02:37:16;;;;;;;6.00;1.90;;;;;;;3.42;80.19;98887.91;5142965;27;20034;-80
2023/03/11 02:39:46;;;;;;;3.40;1.65;;;;;;;3.30;78.92;98899.50;5141639;27;20258;-81
2023/03/11 02:42:21;;;;;;;3.35;1.33;;;;;;;3.35;78.94;98888.84;5142501;27;20035;-81
2023/03/11 02:44:57;;;;;;;4.50;1.67;;;;;;;3.35;78.79;98893.41;5141913;27;20027;-80
2023/03/11 02:47:24;;;;;;;6.53;2.63;;;;;;;3.32;78.74;98900.09;5141824;27;20479;-80
2023/03/11 02:49:49;;;;;;;7.15;2.17;;;;;;;3.38;78.84;98893.75;5141527;27;20033;-80
2023/03/11 02:52:16;;;;;;;3.92;1.85;;;;;;;3.46;78.83;98900.63;5141160;27;20027;-80
2023/03/11 02:54:41;;;;;;;4.80;2.40;;;;;;;3.41;78.43;98905.13;5141890;27;20080;-80
2023/03/11 02:57:06;;;;;;;5.73;1.27;;;;;;;3.16;78.27;98904.34;5142261;27;20440;-79
2023/03/11 02:59:32;;;;;;;6.22;1.90;;;;;;;3.27;78.42;98908.88;5141413;27;20672;-80
2023/03/11 03:01:57;;;;;;;5.13;2.60;;;;;;;3.12;77.55;98906.69;5141606;27;20034;-80
2023/03/11 03:04:22;;;;;;;4.90;2.20;;;;;;;2.56;79.37;98910.56;5141658;27;20384;-80
2023/03/11 03:06:47;;;;;;;5.45;1.73;;;;;;;2.74;80.88;98911.53;5141829;27;20353;-80
2023/03/11 03:09:13;;;;;;;8.18;2.58;;;;;;;3.07;79.61;98914.66;5141223;27;20030;-79
2023/03/11 03:11:38;;;;;;;6.00;1.80;;;;;;;3.09;79.67;98911.75;5142302;27;20038;-80
2023/03/11 03:14:03;;;;;;;4.20;2.28;;;;;;;3.03;79.40;98918.91;5141986;27;20313;-80
2023/03/11 03:16:28;;;;;;;10.90;2.20;;;;;;;2.78;78.57;98911.88;5142057;27;20030;-80
2023/03/11 03:18:54;;;;;;;6.90;2.65;;;;;;;2.89;79.62;98919.13;5140064;27;20035;-80
2023/03/11 03:21:19;;;;;;;5.18;1.77;;;;;;;3.06;79.11;98917.59;5142003;27;20031;-80
2023/03/11 03:23:44;;;;;;;7.97;3.00;;;;;;;3.09;79.13;98926.00;5140938;27;20110;-80
2023/03/11 03:26:12;;;;;;;5.90;1.90;;;;;;;3.01;78.50;98926.38;5141359;27;20773;-79
2023/03/11 03:28:38;;;;;;;8.95;2.78;;;;;;;3.12;78.43;98930.94;5138775;27;20267;-80
2023/03/11 03:31:04;;;;;;;9.05;3.25;;;;;;;3.21;78.27;98935.97;5142345;27;20217;-80
2023/03/11 03:33:30;;;;;;;9.60;2.78;;;;;;;3.20;77.83;98937.00;5141053;27;20027;-80
2023/03/11 03:35:55;;;;;;;8.00;3.22;;;;;;;3.31;78.77;98941.56;5141776;27;20037;-80
2023/03/11 03:38:21;;;;;;;8.80;3.28;;;;;;;3.33;77.89;98944.84;5141143;27;20388;-80
2023/03/11 03:40:46;;;;;;;8.45;2.58;;;;;;;3.27;78.08;98945.81;5141907;27;20031;-80
2023/03/11 03:43:12;;;;;;;10.15;3.15;;;;;;;3.32;78.28;98943.19;5141144;27;20157;-80
2023/03/11 03:45:37;;;;;;;9.10;3.75;;;;;;;3.36;78.46;98955.16;5141886;27;20402;-81
2023/03/11 03:48:03;;;;;;;9.02;4.05;;;;;;;3.34;77.75;98951.88;5143913;27;20038;-80
2023/03/11 03:50:28;;;;;;;9.35;3.33;;;;;;;3.37;76.83;98951.41;5139916;27;20031;-81
2023/03/11 03:52:53;;;;;;;7.82;2.55;;;;;;;3.42;77.74;98957.97;5141757;27;20058;-81
2023/03/11 03:55:18;;;;;;;14.47;3.53;;;;;;;3.47;77.37;98961.59;5140859;27;20062;-80
2023/03/11 03:57:44;;;;;;;10.67;3.93;;;;;;;3.48;77.38;98971.28;5140247;27;20293;-81
2023/03/11 04:00:10;;;;;;;7.53;2.03;;;;;;;3.35;76.49;98969.69;5141058;27;20727;-81
2023/03/11 04:02:35;;;;;;;9.18;3.05;;;;;;;3.43;77.17;98981.16;5140372;27;20243;-81
2023/03/11 04:05:00;;;;;;;10.67;4.27;;;;;;;3.38;76.76;98981.84;5142857;27;20046;-80
2023/03/11 04:07:26;;;;;;;6.55;2.67;;;;;;;3.30;77.01;98977.66;5140932;27;20385;-80
2023/03/11 04:09:51;;;;;;;8.00;3.23;;;;;;;3.31;76.69;98979.31;5141952;27;20709;-78
2023/03/11 04:12:16;;;;;;;6.13;3.20;;;;;;;3.35;75.80;98980.47;5139273;27;20474;-81
2023/03/11 04:14:43;;;;;;;8.05;3.20;;;;;;;3.40;76.56;98985.13;5141030;27;20034;-81
2023/03/11 04:17:12;;;;;;;6.55;2.42;;;;;;;3.48;76.86;98983.94;5139058;27;20054;-81
2023/03/11 04:19:38;;;;;;;8.35;2.05;;;;;;;3.28;76.61;98985.16;5139504;27;20031;-80
2023/03/11 04:22:03;;;;;;;8.15;1.50;;;;;;;3.17;77.21;98988.69;5141796;27;20563;-80
2023/03/11 04:24:29;;;;;;;11.20;3.25;;;;;;;3.29;76.57;98991.38;5141413;27;20023;-80
2023/03/11 04:26:54;;;;;;;7.85;2.55;;;;;;;3.05;76.97;98986.81;5140199;27;20019;-79
2023/03/11 04:29:20;;;;;;;6.18;1.67;;;;;;;3.22;77.10;98988.78;5141280;27;20375;-80
2023/03/11 04:31:45;;;;;;;8.38;2.25;;;;;;;3.22;76.68;98991.47;5142311;27;20026;-80
2023/03/11 04:34:10;;;;;;;6.53;2.53;;;;;;;3.25;76.66;98996.41;5141596;27;20109;-80
2023/03/11 04:36:35;;;;;;;7.30;2.00;;;;;;;3.05;77.02;99002.97;5140183;27;20262;-80
2023/03/11 04:39:01;;;;;;;8.50;2.53;;;;;;;3.18;76.53;99006.47;5138701;27;20031;-80
2023/03/11 04:41:26;;;;;;;8.77;2.33;;;;;;;3.26;77.04;99003.44;5140189;27;20273;-79
2023/03/11 04:43:52;;;;;;;7.83;1.73;;;;;;;3.28;77.05;99012.09;5140643;27;20039;-81
2023/03/11 04:46:17;;;;;;;3.60;1.35;;;;;;;3.35;76.76;99009.28;5141578;27;20292;-79
2023/03/11 04:48:42;;;;;;;9.68;3.55;;;;;;;3.32;76.24;99013.25;5138411;27;20042;-79
2023/03/11 04:51:07;;;;;;;5.40;2.40;;;;;;;3.37;76.60;99018.78;5141851;27;20499;-81
2023/03/11 04:53:33;;;;;;;12.30;2.83;;;;;;;3.32;76.87;99024.03;5139392;27;20595;-79
2023/03/11 04:55:58;;;;;;;8.07;3.03;;;;;;;3.39;75.89;99023.94;5141040;27;20031;-81
2023/03/11 04:58:24;;;;;;;8.88;2.67;;;;;;;3.33;75.70;99036.47;5141099;27;20055;-81
2023/03/11 05:00:50;;;;;;;14.93;3.85;;;;;;;3.29;75.77;99038.00;5139533;27;20458;-79
2023/03/11 05:03:15;;;;;;;6.43;2.42;;;;;;;3.21;76.18;99032.97;5141704;27;20035;-80
2023/03/11 05:05:41;;;;;;;6.88;2.22;;;;;;;3.23;76.09;99039.75;5139512;27;20027;-80
2023/03/11 05:08:06;;;;;;;6.13;2.75;;;;;;;3.30;76.09;99044.19;5138042;27;20084;-80
2023/03/11 05:10:31;;;;;;;8.13;2.45;;;;;;;3.27;75.94;99040.09;5138833;27;20038;-81
2023/03/11 05:12:57;;;;;;;7.78;2.60;;;;;;;3.31;75.85;99041.28;5140629;27;20034;-80
2023/03/11 05:15:22;;;;;;;7.72;2.92;;;;;;;3.34;76.10;99042.66;5139338;27;20030;-80
2023/03/11 05:17:47;;;;;;;5.15;2.10;;;;;;;3.25;75.02;99045.72;5139274;27;20464;-80
2023/03/11 05:20:13;;;;;;;15.07;3.07;;;;;;;3.27;76.21;99048.19;5139996;27;20514;-79
2023/03/11 05:22:38;;;;;;;5.32;1.67;;;;;;;3.25;76.11;99045.72;5140081;27;20251;-79
2023/03/11 05:25:05;;;;;;;6.63;2.22;;;;;;;3.30;76.10;99054.97;5139036;27;20097;-80
2023/03/11 05:27:31;;;;;;;10.50;2.55;;;;;;;3.23;75.93;99057.78;5139214;27;20027;-79
2023/03/11 05:29:56;;;;;;;13.73;3.05;;;;;;;3.24;76.10;99059.41;5140182;27;20027;-79
2023/03/11 05:32:21;;;;;;;4.85;1.80;;;;;;;3.27;75.92;99059.75;5140628;27;20031;-80
2023/03/11 05:34:47;;;;;;;5.32;2.65;;;;;;;3.31;75.84;99065.53;5140461;27;20023;-80
2023/03/11 05:37:12;;;;;;;8.88;2.38;;;;;;;3.28;75.04;99076.75;5139021;27;20075;-80
2023/03/11 05:39:38;;;;;;;5.88;1.85;;;;;;;3.12;75.21;99071.00;5139954;27;20211;-78
2023/03/11 05:42:05;;;;;;;16.67;2.92;;;;;;;3.12;76.57;99068.31;5140397;27;20489;-79
2023/03/11 05:44:31;;;;;;;8.43;2.15;;;;;;;3.23;75.40;99073.97;5138735;27;20031;-79
2023/03/11 05:46:56;;;;;;;5.88;2.33;;;;;;;3.19;75.59;99079.00;5137164;27;20028;-80
2023/03/11 05:49:22;;;;;;;11.32;2.30;;;;;;;3.10;74.93;99075.81;5138592;27;20050;-80
2023/03/11 05:51:48;;;;;;;11.32;3.38;;;;;;;3.20;75.51;99077.09;5139737;27;20471;-80
2023/03/11 05:54:16;;;;;;;8.68;2.42;;;;;;;3.21;75.35;99070.69;5140867;27;20524;-80
2023/03/11 05:56:43;;;;;;;7.65;2.50;;;;;;;3.17;75.48;99077.59;5143818;27;20050;-80
2023/03/11 05:59:09;;;;;;;8.38;2.50;;;;;;;3.11;74.85;99082.81;5142014;27;20050;-80
2023/03/11 06:01:35;;;;;;;8.43;2.15;;;;;;;3.06;75.69;99088.09;5143998;27;20058;-80
2023/03/11 06:04:00;;;;;;;22.15;2.08;;;;;;;3.15;75.74;99083.22;5144679;27;20117;-79
2023/03/11 06:06:26;;;;;;;4.95;1.55;;;;;;;3.18;75.02;99095.38;5144045;27;20054;-80
2023/03/11 06:08:53;;;;;;;4.78;1.77;;;;;;;3.21;74.56;99092.22;5143273;27;20042;-80
2023/03/11 06:11:18;;;;;;;7.13;2.08;;;;;;;3.09;74.70;99093.00;5142982;27;20145;-78
2023/03/11 06:13:43;;;;;;;6.75;2.40;;;;;;;3.03;74.15;99091.28;5142828;27;20573;-79
2023/03/11 06:16:09;;;;;;;6.88;2.47;;;;;;;3.04;75.37;99087.50;5143854;27;20026;-80
2023/03/11 06:18:34;;;;;;;6.32;1.85;;;;;;;3.15;75.36;99093.97;5140963;27;20080;-80
2023/03/11 06:21:01;;;;;;;5.75;2.10;;;;;;;3.19;74.14;99086.25;5142861;27;20031;-79
2023/03/11 06:23:27;;;;;;;5.60;2.03;;;;;;;3.10;74.14;99086.59;5141233;27;20252;-79
2023/03/11 06:26:01;;;;;;;3.80;1.65;;;;;;;3.13;74.66;99091.50;5144683;27;20035;-80
2023/03/11 06:28:28;;;;;;;7.72;3.08;;;;;;;3.15;74.69;99092.09;5142357;27;20047;-80
2023/03/11 06:30:55;;;;;;;8.65;2.28;;;;;;;3.17;75.23;99096.44;5144030;27;20103;-79
2023/03/11 06:33:22;;;;;;;5.18;1.88;;;;;;;3.13;74.57;99093.41;5141969;27;20031;-80
2023/03/11 06:35:58;;;;;;;7.95;2.22;;;;;;;3.08;74.80;99112.09;5143479;27;20070;-81
2023/03/11 06:38:23;;;;;;;8.10;3.03;;;;;;;3.05;74.50;99102.63;5142577;27;20035;-81
2023/03/11 06:40:48;;;;;;;5.85;1.48;;;;;;;3.18;75.16;99114.22;5143857;27;20614;-80
2023/03/11 06:43:14;;;;;;;8.67;2.50;;;;;;;3.24;75.05;99122.22;5143843;27;20027;-80
2023/03/11 06:45:39;;;;;;;8.43;2.25;;;;;;;3.15;74.53;99132.50;5143571;27;20660;-80
2023/03/11 06:48:04;;;;;;;6.70;2.27;;;;;;;3.07;74.84;99127.44;5143216;27;20047;-80
2023/03/11 06:50:30;;;;;;;5.93;1.40;;;;;;;3.00;75.81;99132.94;5144685;27;20243;-81
2023/03/11 06:52:56;;;;;;;9.25;3.53;;;;;;;3.08;75.52;99139.03;5143093;27;20072;-79
2023/03/11 06:55:21;;;;;;;5.13;2.83;;;;;;;3.07;74.84;99146.28;5140492;27;20023;-80
2023/03/11 06:57:46;;;;;;;4.75;2.03;;;;;;;3.07;75.02;99153.56;5142992;27;20035;-81
2023/03/11 07:00:12;;;;;;;7.28;2.53;;;;;;;3.13;74.83;99150.75;5142621;27;20076;-79
2023/03/11 07:02:38;;;;;;;11.32;3.00;;;;;;;3.17;75.48;99155.72;5142775;27;20035;-81
2023/03/11 07:05:03;;;;;;;7.73;2.30;;;;;;;3.19;75.37;99161.69;5142119;27;20027;-81
2023/03/11 07:07:29;;;;;;;5.05;1.98;;;;;;;3.18;75.38;99171.63;5141658;27;20247;-80
2023/03/11 07:09:56;;;;;;;10.75;2.15;;;;;;;3.17;75.47;99171.88;5142612;27;20130;-80
2023/03/11 07:12:24;;;;;;;4.85;2.22;;;;;;;3.17;74.97;99171.88;5142125;27;20023;-80
2023/03/11 07:14:53;;;;;;;10.18;3.03;;;;;;;3.15;75.21;99174.81;5142380;27;20035;-81
2023/03/11 07:17:18;;;;;;;10.98;3.60;;;;;;;3.13;75.05;99175.00;5142784;27;20080;-81
2023/03/11 07:19:44;;;;;;;5.83;2.57;;;;;;;3.18;74.76;99181.59;5140463;27;20027;-81
2023/03/11 07:22:09;;;;;;;6.20;2.37;;;;;;;3.08;74.55;99185.66;5141283;27;20262;-81
2023/03/11 07:24:34;;;;;;;16.08;3.38;;;;;;;3.17;75.03;99193.44;5141969;27;20269;-82
2023/03/11 07:26:59;;;;;;;8.77;3.28;;;;;;;3.04;73.83;99195.25;5143117;27;20140;-82
2023/03/11 07:29:25;;;;;;;10.43;3.73;;;;;;;3.12;75.15;99210.28;5142211;27;20476;-81
2023/03/11 07:31:50;;;;;;;11.35;3.42;;;;;;;3.17;75.10;99212.28;5141931;27;20251;-82
2023/03/11 07:34:15;;;;;;;17.63;3.77;;;;;;;3.25;74.45;99222.75;5141813;27;20377;-81
2023/03/11 07:36:41;;;;;;;10.70;2.83;;;;;;;3.26;74.08;99224.38;5142503;27;20236;-81
2023/03/11 07:39:11;;;;;;;8.23;2.95;;;;;;;3.31;74.12;99204.81;5142111;27;20034;-80
2023/03/11 07:41:36;;;;;;;15.13;3.08;;;;;;;3.36;73.36;99210.34;5140674;27;20034;-80
2023/03/11 07:44:02;;;;;;;9.20;2.73;;;;;;;3.14;73.77;99219.78;5141481;27;20031;-80
2023/03/11 07:46:29;;;;;;;9.05;3.22;;;;;;;3.28;73.53;99222.25;5140846;27;20275;-81
2023/03/11 07:48:54;;;;;;;8.68;2.25;;;;;;;3.21;73.39;99224.25;5142993;27;20039;-81
2023/03/11 07:51:26;;;;;;;5.85;2.65;;;;;;;3.26;74.31;99238.66;5144464;27;20048;-77
2023/03/11 07:53:53;;;;;;;5.20;2.20;;;;;;;3.38;73.79;99238.72;5140764;27;20109;-79
2023/03/11 07:56:20;;;;;;;11.48;3.20;;;;;;;3.44;73.56;99246.94;5140099;27;20027;-81
2023/03/11 07:58:45;;;;;;;7.22;2.83;;;;;;;3.23;72.73;99252.63;5139206;27;20023;-84
2023/03/11 08:01:16;;;;;;;8.07;2.03;;;;;;;3.29;72.99;99253.56;5137610;27;20038;-79
2023/03/11 08:03:46;;;;;;;4.18;2.50;;;;;;;3.24;72.54;99253.41;5140120;27;20034;-79
2023/03/11 08:06:16;;;;;;;8.88;2.92;;;;;;;3.06;73.28;99260.50;5142508;27;20054;-79
2023/03/11 08:08:42;;;;;;;4.28;1.92;;;;;;;3.25;73.61;99260.47;5143347;27;20039;-80
2023/03/11 08:11:08;;;;;;;10.90;2.53;;;;;;;3.31;72.52;99270.34;5142853;27;20084;-79
2023/03/11 08:13:33;;;;;;;15.73;3.85;;;;;;;3.46;72.73;99258.28;5142667;27;20569;-80
2023/03/11 08:16:02;;;;;;;9.02;2.80;;;;;;;3.42;72.12;99263.31;5142226;27;20073;-79
2023/03/11 08:18:27;;;;;;;6.18;2.60;;;;;;;3.20;72.73;99260.31;5141176;27;20035;-79
2023/03/11 08:20:54;;;;;;;10.05;2.72;;;;;;;3.41;73.15;99268.94;5142051;27;20057;-80
2023/03/11 08:23:19;;;;;;;6.85;3.47;;;;;;;3.49;73.05;99279.41;5141352;27;20053;-80
2023/03/11 08:25:44;;;;;;;7.83;2.90;;;;;;;3.58;72.23;99275.31;5140482;27;20403;-80
2023/03/11 08:28:09;;;;;;;8.63;3.33;;;;;;;3.45;70.50;99270.13;5141109;27;20287;-78
2023/03/11 08:30:35;;;;;;;11.67;4.03;;;;;;;3.53;71.31;99272.50;5139872;27;20247;-79
2023/03/11 08:33:00;;;;;;;7.60;2.95;;;;;;;3.58;71.28;99280.72;5142479;27;20261;-80
2023/03/11 08:35:25;;;;;;;12.50;4.38;;;;;;;3.66;72.51;99286.84;5140049;27;20045;-79
2023/03/11 08:37:51;;;;;;;5.45;2.15;;;;;;;3.65;72.26;99287.88;5142474;27;20388;-80
2023/03/11 08:40:17;;;;;;;7.85;2.45;;;;;;;3.76;72.18;99280.88;5140290;27;20032;-80
2023/03/11 08:42:42;;;;;;;3.67;1.80;;;;;;;3.43;70.25;99288.41;5141269;27;20793;-80
2023/03/11 08:45:08;;;;;;;7.30;2.40;;;;;;;3.58;72.16;99286.09;5140300;27;20520;-81
2023/03/11 08:47:35;;;;;;;5.18;1.60;;;;;;;3.58;71.71;99288.00;5139123;27;20350;-81
2023/03/11 08:50:02;;;;;;;5.75;2.70;;;;;;;3.29;71.32;99283.22;5140010;27;20031;-82
2023/03/11 08:52:27;;;;;;;9.82;2.72;;;;;;;3.56;71.99;99282.81;5141122;27;20130;-87
2023/03/11 08:54:52;;;;;;;6.22;2.58;;;;;;;3.65;70.74;99280.63;5141272;27;20027;-84
2023/03/11 08:57:18;;;;;;;7.27;2.50;;;;;;;3.69;71.45;99275.59;5139530;27;20068;-81
2023/03/11 08:59:43;;;;;;;11.95;3.78;;;;;;;3.57;70.21;99279.06;5140384;27;20255;-81
2023/03/11 09:02:10;;;;;;;29.17;3.03;;;;;;;3.83;70.74;99290.50;5140620;27;20079;-81
2023/03/11 09:04:35;;;;;;;6.65;2.15;;;;;;;3.87;69.14;99293.56;5140504;27;20259;-82
2023/03/11 09:07:01;;;;;;;4.88;1.98;;;;;;;3.89;68.66;99285.22;5144358;27;20110;-84
2023/03/11 09:09:26;;;;;;;6.97;2.17;;;;;;;3.43;68.54;99286.53;5141926;27;20105;-89
2023/03/11 09:11:51;;;;;;;4.05;2.25;;;;;;;3.76;68.88;99289.81;5141140;27;20316;-83
2023/03/11 09:14:16;;;;;;;7.83;2.30;;;;;;;3.94;68.13;99296.16;5140132;27;20433;-83
2023/03/11 09:16:42;;;;;;;5.85;1.88;;;;;;;3.75;65.71;99288.13;5143831;27;20255;-84
2023/03/11 09:19:07;;;;;;;8.48;1.63;;;;;;;4.02;65.87;99290.44;5139284;27;20530;-84
2023/03/11 09:21:34;;;;;;;8.10;2.42;;;;;;;4.14;66.17;99297.69;5141763;27;20062;-84
2023/03/11 09:24:00;;;;;;;3.83;1.75;;;;;;;4.25;66.26;99286.09;5138850;27;20026;-84
2023/03/11 09:26:25;;;;;;;10.52;1.83;;;;;;;4.34;65.83;99285.72;5142326;27;20015;-83
2023/03/11 09:28:50;;;;;;;3.63;1.40;;;;;;;4.12;66.08;99289.00;5146321;27;20071;-84
2023/03/11 09:31:16;;;;;;;5.63;2.13;;;;;;;4.19;65.71;99287.03;5142846;27;20038;-82
2023/03/11 09:33:42;;;;;;;6.03;2.20;;;;;;;4.37;64.84;99290.69;5138856;27;20031;-83
2023/03/11 09:36:19;;;;;;;4.10;1.52;;;;;;;4.18;64.89;99296.19;5139180;27;20031;-83
2023/03/11 09:38:45;;;;;;;4.53;1.17;;;;;;;4.30;63.85;99290.78;5138979;27;20034;-82
2023/03/11 09:41:34;;;;;;;2.65;1.05;;;;;;;4.40;63.77;99301.00;5139222;27;20138;-81
2023/03/11 09:44:11;;;;;;;4.30;1.73;;;;;;;4.38;62.99;99297.69;5137750;27;20229;-81
2023/03/11 09:47:02;;;;;;;1.83;0.80;;;;;;;4.31;62.02;99320.22;5140770;27;20035;-80
2023/03/11 09:49:54;;;;;;;6.32;1.55;;;;;;;4.27;64.44;99307.47;5136563;27;20027;-82
2023/03/11 09:52:31;;;;;;;6.72;1.40;;;;;;;4.44;63.09;99310.25;5142107;27;20417;-83
2023/03/11 09:54:59;;;;;;;4.32;1.35;;;;;;;4.48;62.60;99313.31;5137441;27;20034;-85
2023/03/11 09:57:29;;;;;;;3.50;1.10;;;;;;;4.40;62.25;99319.88;5139187;27;20487;-85
2023/03/11 09:59:55;;;;;;;1.50;0.77;;;;;;;4.34;61.35;99318.94;5137870;27;20464;-86
2023/03/11 10:02:26;;;;;;;7.13;1.02;;;;;;;4.35;61.37;99325.19;5141766;27;20034;-86
2023/03/11 10:05:15;;;;;;;5.03;1.83;;;;;;;4.57;60.14;99313.78;5139717;27;20081;-86
2023/03/11 10:07:46;;;;;;;3.10;0.82;;;;;;;4.66;61.23;99309.66;5139994;27;20110;-87
2023/03/11 10:10:13;;;;;;;7.63;1.63;;;;;;;4.61;61.04;99306.84;5139735;27;20030;-88
2023/03/11 10:13:06;;;;;;;6.35;1.20;;;;;;;4.61;59.12;99323.88;5139466;27;20710;-86
2023/03/11 10:15:40;;;;;;;6.05;1.75;;;;;;;4.79;60.71;99324.81;5137439;27;20029;-84
2023/03/11 10:18:25;;;;;;;10.23;1.83;;;;;;;4.84;60.24;99334.91;5136306;27;20058;-86
2023/03/11 10:21:06;;;;;;;4.65;1.00;;;;;;;4.45;59.12;99341.63;5139061;27;20035;-88
2023/03/11 10:23:40;;;;;;;4.50;1.20;;;;;;;4.21;59.68;99341.56;5137276;27;20031;-88
2023/03/11 10:26:14;;;;;;;4.03;1.33;;;;;;;4.16;59.34;99336.06;5137386;27;20023;-86
2023/03/11 10:28:47;;;;;;;4.20;1.40;;;;;;;4.45;59.96;99347.03;5134907;27;20479;-84
2023/03/11 10:31:28;;;;;;;2.97;0.63;;;;;;;4.73;60.46;99337.38;5137882;27;20660;-85
2023/03/11 10:33:53;;;;;;;3.25;0.95;;;;;;;4.48;56.43;99343.84;5136514;27;20039;-84
2023/03/11 10:36:26;;;;;;;3.70;0.87;;;;;;;4.55;58.80;99339.16;5139042;27;20058;-83
2023/03/11 10:38:54;;;;;;;4.05;1.05;;;;;;;4.77;59.33;99338.56;5139593;27;20117;-86
2023/03/11 10:41:29;;;;;;;4.10;1.58;;;;;;;4.68;57.41;99334.53;5141372;27;20049;-84
2023/03/11 10:44:12;;;;;;;5.13;0.57;;;;;;;4.92;57.62;99339.94;5141507;27;20019;-85
2023/03/11 10:46:38;;;;;;;2.95;1.15;;;;;;;5.14;57.50;99342.00;5140582;27;20138;-85
2023/03/11 10:49:11;;;;;;;2.65;0.82;;;;;;;5.04;55.44;99336.38;5141969;27;20113;-85
2023/03/11 10:51:37;;;;;;;4.20;0.65;;;;;;;5.17;56.79;99317.19;5141188;27;20076;-84
2023/03/11 10:54:03;;;;;;;3.33;0.95;;;;;;;4.74;54.72;99332.81;5142823;27;20444;-84
2023/03/11 10:56:39;;;;;;;2.72;0.77;;;;;;;5.02;56.94;99332.03;5142909;27;20053;-84
2023/03/11 10:59:21;;;;;;;3.65;0.70;;;;;;;5.27;56.83;99350.91;5142951;27;20035;-85
2023/03/11 11:02:25;;;;;;;3.58;0.85;;;;;;;5.21;55.21;99353.50;5143806;27;20026;-84
2023/03/11 11:05:21;;;;;;;2.38;0.68;;;;;;;5.33;57.63;99355.34;5134915;27;20561;-85
2023/03/11 11:08:02;;;;;;;4.20;0.68;;;;;;;5.39;55.19;99354.38;5142390;27;20655;-91
2023/03/11 11:10:28;;;;;;;18.02;1.65;;;;;;;5.33;55.97;99356.16;5143667;27;20070;-85
2023/03/11 11:13:07;;;;;;;6.32;0.93;;;;;;;5.38;55.75;99350.03;5143866;27;20435;-85
2023/03/11 11:15:39;;;;;;;2.58;1.33;;;;;;;5.34;55.34;99357.00;5145181;27;20027;-86
2023/03/11 11:18:16;;;;;;;4.50;0.70;;;;;;;5.27;53.60;99351.72;5138562;27;20056;-86
2023/03/11 11:20:59;;;;;;;5.97;0.98;;;;;;;5.29;53.98;99346.09;5143082;27;20316;-85
2023/03/11 11:23:30;;;;;;;5.82;0.60;;;;;;;5.36;53.97;99347.59;5143838;27;20027;-85
2023/03/11 11:25:58;;;;;;;33.20;2.63;;;;;;;5.46;55.40;99344.25;5142518;27;20022;-85
2023/03/11 11:28:24;;;;;;;21.98;4.18;;;;;;;5.60;57.27;99333.97;5143233;27;20475;-85
2023/03/11 11:31:04;;;;;;;7.35;1.42;;;;;;;5.65;55.00;99338.66;5144004;27;20030;-87
2023/03/11 11:33:38;;;;;;;5.43;1.77;;;;;;;5.81;56.82;99338.94;5144608;27;20039;-86
2023/03/11 11:36:10;;;;;;;1.40;0.60;;;;;;;5.80;54.44;99326.44;5167087;27;20038;-86
2023/03/11 11:38:35;;;;;;;8.07;1.35;;;;;;;5.94;56.06;99341.31;5140163;27;20042;-86
2023/03/11 11:41:04;;;;;;;4.82;0.93;;;;;;;6.00;55.46;99336.81;5142145;27;20019;-85
2023/03/11 11:43:42;;;;;;;2.55;1.50;;;;;;;6.01;53.66;99337.63;5142234;27;20030;-83